createdAt,value
2022-11-19T00:00:08.936Z,36.1610
2022-11-19T00:00:20.008Z,36.1380
2022-11-19T00:00:31.065Z,36.0910
2022-11-19T00:00:42.123Z,36.0800
2022-11-19T00:00:53.230Z,36.0800
2022-11-19T00:01:04.350Z,36.0740
2022-11-19T00:01:15.453Z,36.1030
2022-11-19T00:01:26.656Z,36.1550
2022-11-19T00:01:37.702Z,36.2350
2022-11-19T00:01:48.818Z,36.2520
2022-11-19T00:01:59.885Z,36.2750
2022-11-19T00:02:10.994Z,36.3610
2022-11-19T00:02:22.158Z,36.4250
2022-11-19T00:02:33.268Z,36.4530
2022-11-19T00:02:44.312Z,36.4530
2022-11-19T00:02:55.373Z,36.4530
2022-11-19T00:03:06.473Z,36.3730
2022-11-19T00:03:17.583Z,36.1840
2022-11-19T00:03:28.632Z,36.1030
2022-11-19T00:03:39.686Z,36.0690
2022-11-19T00:03:52.996Z,36.0860
2022-11-19T00:04:04.460Z,36.1940
2022-11-19T00:04:15.521Z,36.1770
2022-11-19T00:04:26.582Z,36.2640
2022-11-19T00:04:37.643Z,36.3640
2022-11-19T00:04:48.725Z,36.4040
2022-11-19T00:04:59.811Z,36.3590
2022-11-19T00:05:10.864Z,36.3530
2022-11-19T00:05:21.923Z,36.2950
2022-11-19T00:05:32.986Z,36.2950
2022-11-19T00:05:44.054Z,36.2560
2022-11-19T00:05:55.115Z,36.3210
2022-11-19T00:06:06.160Z,36.3680
2022-11-19T00:06:17.224Z,36.3270
2022-11-19T00:06:28.297Z,36.2690
2022-11-19T00:06:39.344Z,36.1430
2022-11-19T00:06:50.419Z,35.9860
2022-11-19T00:07:01.581Z,35.9390
2022-11-19T00:07:12.688Z,35.8790
2022-11-19T00:07:23.834Z,35.7650
2022-11-19T00:07:34.918Z,35.7330
2022-11-19T00:07:45.975Z,35.7030
2022-11-19T00:07:57.055Z,35.8030
2022-11-19T00:08:08.139Z,35.8540
2022-11-19T00:08:19.173Z,35.7620
2022-11-19T00:08:30.213Z,35.7980
2022-11-19T00:08:41.283Z,35.8260
2022-11-19T00:08:52.324Z,35.9010
2022-11-19T00:09:03.384Z,35.8920
2022-11-19T00:09:14.472Z,35.7830
2022-11-19T00:09:25.553Z,35.5830
2022-11-19T00:09:36.624Z,35.4810
2022-11-19T00:09:47.733Z,35.4750
2022-11-19T00:09:58.835Z,35.3780
2022-11-19T00:10:09.970Z,35.3620
2022-11-19T00:10:21.031Z,35.3300
2022-11-19T00:10:32.084Z,35.3090
2022-11-19T00:10:43.150Z,35.2740
2022-11-19T00:10:54.221Z,35.2820
2022-11-19T00:11:09.294Z,35.3680
2022-11-19T00:11:20.980Z,35.5100
2022-11-19T00:11:32.034Z,35.2820
2022-11-19T00:11:43.104Z,35.1800
2022-11-19T00:11:54.163Z,35.1800
2022-11-19T00:12:05.223Z,35.1480
2022-11-19T00:12:16.286Z,35.2280
2022-11-19T00:12:27.356Z,35.1870
2022-11-19T00:12:38.423Z,35.0900
2022-11-19T00:12:49.483Z,35.0220
2022-11-19T00:13:00.554Z,34.9710
2022-11-19T00:13:11.616Z,34.9600
2022-11-19T00:13:22.655Z,34.9080
2022-11-19T00:13:33.713Z,34.8710
2022-11-19T00:13:44.791Z,34.8710
2022-11-19T00:13:55.864Z,34.8430
2022-11-19T00:14:06.939Z,34.8120
2022-11-19T00:14:18.004Z,34.7960
2022-11-19T00:14:29.065Z,34.8070
2022-11-19T00:14:40.124Z,34.8640
2022-11-19T00:14:51.164Z,34.8360
2022-11-19T00:15:02.234Z,34.7900
2022-11-19T00:15:13.426Z,34.7790
2022-11-19T00:15:24.565Z,34.7960
2022-11-19T00:15:35.631Z,34.7790
2022-11-19T00:15:46.694Z,34.7450
2022-11-19T00:15:57.744Z,34.8420
2022-11-19T00:16:08.804Z,34.8470
2022-11-19T00:16:19.885Z,34.7260
2022-11-19T00:16:31.014Z,34.6760
2022-11-19T00:16:42.124Z,34.6490
2022-11-19T00:16:53.224Z,34.6250
2022-11-19T00:17:04.284Z,34.6360
2022-11-19T00:17:15.343Z,34.6660
2022-11-19T00:17:26.403Z,34.6600
2022-11-19T00:17:37.473Z,34.6490
2022-11-19T00:17:48.552Z,34.6870
2022-11-19T00:17:59.614Z,34.6650
2022-11-19T00:18:10.688Z,34.6300
2022-11-19T00:18:21.730Z,34.6070
2022-11-19T00:18:32.783Z,34.6300
2022-11-19T00:18:43.864Z,34.6240
2022-11-19T00:18:54.935Z,34.6190
2022-11-19T00:19:06.014Z,34.6020
2022-11-19T00:19:17.337Z,34.5170
2022-11-19T00:19:28.744Z,34.4890
2022-11-19T00:19:39.844Z,34.4730
2022-11-19T00:19:50.953Z,34.4550
2022-11-19T00:20:02.092Z,34.4600
2022-11-19T00:20:13.146Z,34.4380
2022-11-19T00:20:24.223Z,34.4210
2022-11-19T00:20:35.267Z,34.4380
2022-11-19T00:20:46.324Z,34.4780
2022-11-19T00:20:57.394Z,34.4730
2022-11-19T00:21:08.453Z,34.4660
2022-11-19T00:21:19.493Z,34.5170
2022-11-19T00:21:30.543Z,34.5120
2022-11-19T00:21:41.603Z,34.4840
2022-11-19T00:21:52.662Z,34.4600
2022-11-19T00:22:03.720Z,34.5170
2022-11-19T00:22:14.774Z,34.5120
2022-11-19T00:22:25.858Z,34.4380
2022-11-19T00:22:36.904Z,34.4210
2022-11-19T00:22:47.965Z,34.4160
2022-11-19T00:22:59.033Z,34.3690
2022-11-19T00:23:10.104Z,34.3250
2022-11-19T00:23:21.174Z,34.3020
2022-11-19T00:23:32.224Z,34.3300
2022-11-19T00:23:43.283Z,34.3250
2022-11-19T00:23:54.344Z,34.3360
2022-11-19T00:24:05.404Z,34.2970
2022-11-19T00:24:16.503Z,34.2790
2022-11-19T00:24:27.590Z,34.2730
2022-11-19T00:24:38.691Z,34.2730
2022-11-19T00:24:49.764Z,34.2790
2022-11-19T00:25:00.843Z,34.2450
2022-11-19T00:25:11.963Z,34.2120
2022-11-19T00:25:23.065Z,34.2230
2022-11-19T00:25:34.213Z,34.2290
2022-11-19T00:25:45.274Z,34.2400
2022-11-19T00:25:56.347Z,34.2340
2022-11-19T00:26:07.405Z,34.2450
2022-11-19T00:26:18.464Z,34.1940
2022-11-19T00:26:29.532Z,34.1550
2022-11-19T00:26:40.604Z,34.1330
2022-11-19T00:26:51.664Z,34.1380
2022-11-19T00:27:02.717Z,34.1550
2022-11-19T00:27:13.764Z,34.1710
2022-11-19T00:27:24.824Z,34.1440
2022-11-19T00:27:35.880Z,34.0920
2022-11-19T00:27:46.955Z,34.0750
2022-11-19T00:27:58.036Z,34.1140
2022-11-19T00:28:09.085Z,34.1380
2022-11-19T00:28:20.114Z,34.1030
2022-11-19T00:28:31.184Z,34.0750
2022-11-19T00:28:42.256Z,34.0640
2022-11-19T00:28:53.323Z,34.0300
2022-11-19T00:29:04.374Z,34.0600
2022-11-19T00:29:18.043Z,34.0420
2022-11-19T00:29:29.611Z,34.1100
2022-11-19T00:29:40.674Z,34.0340
2022-11-19T00:29:51.743Z,34.0400
2022-11-19T00:30:05.531Z,34.0560
2022-11-19T00:30:40.956Z,34.2430
2022-11-19T00:30:52.163Z,34.3210
2022-11-19T00:30:53.703Z,34.3320
2022-11-19T00:31:04.744Z,34.1880
2022-11-19T00:31:15.804Z,34.0600
2022-11-19T00:31:26.871Z,33.9700
2022-11-19T00:31:37.934Z,33.9380
2022-11-19T00:31:48.993Z,33.9660
2022-11-19T00:32:00.075Z,34.0170
2022-11-19T00:32:11.126Z,34.0340
2022-11-19T00:32:22.198Z,34.0060
2022-11-19T00:32:33.255Z,33.9710
2022-11-19T00:32:44.339Z,33.9270
2022-11-19T00:32:55.405Z,33.9440
2022-11-19T00:33:06.474Z,33.9210
2022-11-19T00:33:17.534Z,33.8750
2022-11-19T00:33:28.624Z,33.8480
2022-11-19T00:33:39.684Z,33.8160
2022-11-19T00:33:50.922Z,33.7640
2022-11-19T00:34:02.024Z,33.7640
2022-11-19T00:34:13.092Z,33.7640
2022-11-19T00:34:24.164Z,33.7820
2022-11-19T00:34:35.213Z,33.7990
2022-11-19T00:34:46.275Z,33.7820
2022-11-19T00:34:57.342Z,33.7700
2022-11-19T00:35:08.428Z,33.7990
2022-11-19T00:35:19.470Z,33.8220
2022-11-19T00:35:30.535Z,33.7880
2022-11-19T00:35:41.633Z,33.7530
2022-11-19T00:35:52.695Z,33.7140
2022-11-19T00:36:03.760Z,33.6790
2022-11-19T00:36:14.829Z,33.7080
2022-11-19T00:36:25.887Z,33.6860
2022-11-19T00:36:36.925Z,33.6570
2022-11-19T00:36:48.007Z,33.6800
2022-11-19T00:36:59.144Z,33.6920
2022-11-19T00:37:10.227Z,33.7310
2022-11-19T00:37:21.403Z,33.7530
2022-11-19T00:37:32.523Z,33.7030
2022-11-19T00:37:43.594Z,33.6690
2022-11-19T00:37:54.655Z,33.6240
2022-11-19T00:38:05.736Z,33.6800
2022-11-19T00:38:16.812Z,33.6920
2022-11-19T00:38:27.847Z,33.6510
2022-11-19T00:38:38.904Z,33.6570
2022-11-19T00:38:49.990Z,33.6510
2022-11-19T00:39:01.061Z,33.6860
2022-11-19T00:39:12.116Z,33.6980
2022-11-19T00:39:23.208Z,33.6980
2022-11-19T00:39:34.235Z,33.7090
2022-11-19T00:39:45.296Z,33.6560
2022-11-19T00:39:56.375Z,33.6450
2022-11-19T00:40:07.454Z,33.6560
2022-11-19T00:40:18.531Z,33.6320
2022-11-19T00:40:29.585Z,33.5930
2022-11-19T00:40:40.630Z,33.5660
2022-11-19T00:40:51.713Z,33.5250
2022-11-19T00:41:02.796Z,33.4870
2022-11-19T00:41:13.869Z,33.4760
2022-11-19T00:41:24.935Z,33.5140
2022-11-19T00:41:35.986Z,33.5200
2022-11-19T00:41:47.057Z,33.5310
2022-11-19T00:41:58.125Z,33.5660
2022-11-19T00:42:09.183Z,33.5820
2022-11-19T00:42:20.251Z,33.5030
2022-11-19T00:42:31.343Z,33.4920
2022-11-19T00:42:42.405Z,33.4760
2022-11-19T00:42:53.479Z,33.4190
2022-11-19T00:43:04.545Z,33.3730
2022-11-19T00:43:15.619Z,33.3560
2022-11-19T00:43:26.695Z,33.3400
2022-11-19T00:43:37.775Z,33.3960
2022-11-19T00:43:49.272Z,33.4130
2022-11-19T00:44:00.647Z,33.3960
2022-11-19T00:44:11.695Z,33.3560
2022-11-19T00:44:22.797Z,33.2900
2022-11-19T00:44:37.148Z,33.2950
2022-11-19T00:44:48.722Z,33.4980
2022-11-19T00:44:59.855Z,33.5070
2022-11-19T00:45:10.964Z,33.4130
2022-11-19T00:45:22.032Z,33.3670
2022-11-19T00:45:33.091Z,33.3510
2022-11-19T00:45:44.144Z,33.3290
2022-11-19T00:45:55.296Z,33.3450
2022-11-19T00:46:06.341Z,33.3620
2022-11-19T00:46:17.423Z,33.2900
2022-11-19T00:46:28.500Z,33.2390
2022-11-19T00:46:39.597Z,33.2610
2022-11-19T00:46:50.661Z,33.2330
2022-11-19T00:47:01.724Z,33.2220
2022-11-19T00:47:12.794Z,33.2110
2022-11-19T00:47:23.864Z,33.2440
2022-11-19T00:47:34.914Z,33.2610
2022-11-19T00:47:45.985Z,33.3230
2022-11-19T00:47:57.048Z,33.3290
2022-11-19T00:48:08.104Z,33.2770
2022-11-19T00:48:19.165Z,33.2770
2022-11-19T00:48:30.225Z,33.2770
2022-11-19T00:48:41.268Z,33.3340
2022-11-19T00:48:52.350Z,33.3230
2022-11-19T00:49:03.406Z,33.2900
2022-11-19T00:49:14.460Z,33.2550
2022-11-19T00:49:25.523Z,33.2770
2022-11-19T00:49:36.618Z,33.2750
2022-11-19T00:49:47.684Z,33.2860
2022-11-19T00:49:58.750Z,33.2860
2022-11-19T00:50:09.817Z,33.2460
2022-11-19T00:50:20.903Z,33.1790
2022-11-19T00:50:31.927Z,33.1280
2022-11-19T00:50:42.995Z,33.1000
2022-11-19T00:50:54.055Z,33.0840
2022-11-19T00:51:05.144Z,33.1000
2022-11-19T00:51:16.225Z,33.1610
2022-11-19T00:51:27.301Z,33.1960
2022-11-19T00:51:38.352Z,33.2580
2022-11-19T00:51:49.412Z,33.2580
2022-11-19T00:52:00.462Z,33.2230
2022-11-19T00:52:11.504Z,33.2230
2022-11-19T00:52:22.564Z,33.2070
2022-11-19T00:52:33.654Z,33.1900
2022-11-19T00:52:44.715Z,33.1280
2022-11-19T00:52:55.798Z,33.1170
2022-11-19T00:53:06.853Z,33.1560
2022-11-19T00:53:17.934Z,33.1340
2022-11-19T00:53:29.035Z,33.1500
2022-11-19T00:53:40.144Z,33.1060
2022-11-19T00:53:51.254Z,33.0190
2022-11-19T00:54:02.336Z,33.0020
2022-11-19T00:54:13.405Z,33.0240
2022-11-19T00:54:24.477Z,33.0240
2022-11-19T00:54:35.550Z,33.0430
2022-11-19T00:54:46.604Z,33.1280
2022-11-19T00:54:57.695Z,33.1740
2022-11-19T00:55:08.785Z,33.1430
2022-11-19T00:55:19.875Z,33.1260
2022-11-19T00:55:30.964Z,33.1080
2022-11-19T00:55:42.064Z,33.1540
2022-11-19T00:55:53.175Z,33.1650
2022-11-19T00:56:04.274Z,33.0970
2022-11-19T00:56:15.364Z,33.0810
2022-11-19T00:56:26.435Z,33.0240
2022-11-19T00:56:37.496Z,33.0190
2022-11-19T00:56:48.579Z,33.0210
2022-11-19T00:56:59.644Z,33.0100
2022-11-19T00:57:10.694Z,32.9920
2022-11-19T00:57:21.766Z,33.0050
2022-11-19T00:57:32.814Z,33.0550
2022-11-19T00:57:43.878Z,33.0840
2022-11-19T00:57:54.951Z,33.0890
2022-11-19T00:58:06.046Z,33.1060
2022-11-19T00:58:17.165Z,33.0660
2022-11-19T00:58:28.264Z,33.0020
2022-11-19T00:58:39.324Z,32.9850
2022-11-19T00:58:50.388Z,32.9520
2022-11-19T00:59:01.445Z,32.8790
2022-11-19T00:59:12.510Z,32.8440
2022-11-19T00:59:23.572Z,32.8500
2022-11-19T00:59:34.636Z,32.8850
2022-11-19T00:59:45.700Z,32.9290
2022-11-19T00:59:56.762Z,32.9230
2022-11-19T01:00:07.817Z,32.9470
2022-11-19T01:00:18.863Z,32.9400
2022-11-19T01:00:29.938Z,32.9340
2022-11-19T01:00:40.985Z,32.9120
2022-11-19T01:00:52.112Z,32.8680
2022-11-19T01:01:03.213Z,32.8500
2022-11-19T01:01:14.369Z,32.8900
2022-11-19T01:01:25.709Z,32.9010
2022-11-19T01:01:36.871Z,32.9010
2022-11-19T01:01:47.971Z,32.9760
2022-11-19T01:01:59.039Z,32.9920
2022-11-19T01:02:10.075Z,32.9810
2022-11-19T01:02:21.145Z,32.9260
2022-11-19T01:02:32.199Z,32.8530
2022-11-19T01:02:43.264Z,32.7910
2022-11-19T01:02:54.326Z,32.7290
2022-11-19T01:03:05.405Z,32.7360
2022-11-19T01:03:16.454Z,32.7800
2022-11-19T01:03:27.514Z,32.7630
2022-11-19T01:03:38.617Z,32.7630
2022-11-19T01:03:49.744Z,32.7580
2022-11-19T01:04:00.844Z,32.7800
2022-11-19T01:04:11.915Z,32.8640
2022-11-19T01:04:22.989Z,32.8750
2022-11-19T01:04:34.056Z,32.8920
2022-11-19T01:04:45.100Z,32.8250
2022-11-19T01:04:56.165Z,32.7430
2022-11-19T01:05:07.224Z,32.7490
2022-11-19T01:05:18.285Z,32.7720
2022-11-19T01:05:29.377Z,32.8500
2022-11-19T01:05:40.424Z,32.8680
2022-11-19T01:05:51.487Z,32.8620
2022-11-19T01:06:02.543Z,32.8500
2022-11-19T01:06:17.810Z,32.8170
2022-11-19T01:06:30.810Z,32.8480
2022-11-19T01:06:42.741Z,32.7480
2022-11-19T01:06:53.961Z,32.6850
2022-11-19T01:07:05.125Z,32.6230
2022-11-19T01:07:16.171Z,32.6070
2022-11-19T01:07:27.277Z,32.5850
2022-11-19T01:07:38.392Z,32.5740
2022-11-19T01:07:49.422Z,32.5850
2022-11-19T01:08:00.475Z,32.5900
2022-11-19T01:08:11.525Z,32.6070
2022-11-19T01:08:22.687Z,32.6040
2022-11-19T01:08:33.834Z,32.6150
2022-11-19T01:08:44.884Z,32.6480
2022-11-19T01:08:55.994Z,32.6590
2022-11-19T01:09:07.076Z,32.7380
2022-11-19T01:09:18.496Z,32.7890
2022-11-19T01:09:30.004Z,32.8060
2022-11-19T01:09:41.116Z,32.7780
2022-11-19T01:09:52.191Z,32.7600
2022-11-19T01:10:03.294Z,32.7270
2022-11-19T01:10:14.373Z,32.6260
2022-11-19T01:10:25.445Z,32.5530
2022-11-19T01:10:36.484Z,32.5310
2022-11-19T01:10:47.535Z,32.4970
2022-11-19T01:10:58.595Z,32.4910
2022-11-19T01:11:09.650Z,32.5590
2022-11-19T01:11:20.715Z,32.5420
2022-11-19T01:11:31.807Z,32.5590
2022-11-19T01:11:42.864Z,32.5810
2022-11-19T01:11:53.934Z,32.6100
2022-11-19T01:12:05.009Z,32.5920
2022-11-19T01:12:16.063Z,32.5860
2022-11-19T01:12:27.104Z,32.6040
2022-11-19T01:12:38.178Z,32.5370
2022-11-19T01:12:49.255Z,32.4860
2022-11-19T01:13:00.335Z,32.4750
2022-11-19T01:13:11.414Z,32.4580
2022-11-19T01:13:22.483Z,32.4310
2022-11-19T01:13:33.534Z,32.4580
2022-11-19T01:13:44.604Z,32.4910
2022-11-19T01:13:55.694Z,32.5420
2022-11-19T01:14:06.814Z,32.5700
2022-11-19T01:14:17.932Z,32.5640
2022-11-19T01:14:29.066Z,32.4580
2022-11-19T01:14:40.183Z,32.4500
2022-11-19T01:14:51.306Z,32.4500
2022-11-19T01:15:02.444Z,32.4620
2022-11-19T01:15:13.570Z,32.4620
2022-11-19T01:15:24.646Z,32.4730
2022-11-19T01:15:35.704Z,32.4620
2022-11-19T01:15:46.776Z,32.4570
2022-11-19T01:15:57.834Z,32.4860
2022-11-19T01:16:08.900Z,32.4800
2022-11-19T01:16:19.955Z,32.5640
2022-11-19T01:16:31.012Z,32.6040
2022-11-19T01:16:42.116Z,32.6040
2022-11-19T01:16:53.262Z,32.5750
2022-11-19T01:17:04.325Z,32.5480
2022-11-19T01:17:15.385Z,32.5060
2022-11-19T01:17:26.445Z,32.5010
2022-11-19T01:17:37.511Z,32.4900
2022-11-19T01:17:48.565Z,32.4840
2022-11-19T01:17:59.628Z,32.4440
2022-11-19T01:18:10.705Z,32.4900
2022-11-19T01:18:21.755Z,32.4950
2022-11-19T01:18:32.820Z,32.4170
2022-11-19T01:18:43.876Z,32.4170
2022-11-19T01:18:54.935Z,32.4440
2022-11-19T01:19:06.005Z,32.4220
2022-11-19T01:19:17.588Z,32.4440
2022-11-19T01:19:28.980Z,32.4840
2022-11-19T01:19:40.037Z,32.4430
2022-11-19T01:19:51.104Z,32.4330
2022-11-19T01:20:02.229Z,32.4170
2022-11-19T01:20:13.335Z,32.4170
2022-11-19T01:20:24.465Z,32.3840
2022-11-19T01:20:35.587Z,32.3890
2022-11-19T01:20:46.714Z,32.4220
2022-11-19T01:20:57.791Z,32.4330
2022-11-19T01:21:08.852Z,32.4060
2022-11-19T01:21:19.913Z,32.3950
2022-11-19T01:21:31.023Z,32.3780
2022-11-19T01:21:42.054Z,32.3550
2022-11-19T01:21:53.184Z,32.3330
2022-11-19T01:22:04.251Z,32.3270
2022-11-19T01:22:15.308Z,32.3270
2022-11-19T01:22:26.383Z,32.3440
2022-11-19T01:22:37.634Z,32.3600
2022-11-19T01:22:48.701Z,32.3730
2022-11-19T01:22:59.755Z,32.3780
2022-11-19T01:23:10.805Z,32.3440
2022-11-19T01:23:21.893Z,32.2940
2022-11-19T01:23:32.964Z,32.3160
2022-11-19T01:23:44.035Z,32.5020
2022-11-19T01:23:55.099Z,32.6100
2022-11-19T01:24:06.174Z,32.7210
2022-11-19T01:24:17.284Z,32.7780
2022-11-19T01:24:28.345Z,32.7920
2022-11-19T01:24:39.405Z,32.7920
2022-11-19T01:24:50.474Z,32.6300
2022-11-19T01:25:01.525Z,32.4500
2022-11-19T01:25:12.625Z,32.3550
2022-11-19T01:25:23.684Z,32.2490
2022-11-19T01:25:34.758Z,32.2050
2022-11-19T01:25:45.814Z,32.2100
2022-11-19T01:25:56.877Z,32.3440
2022-11-19T01:26:07.940Z,32.4000
2022-11-19T01:26:19.011Z,32.2940
2022-11-19T01:26:30.057Z,32.3490
2022-11-19T01:26:45.468Z,32.4110
2022-11-19T01:26:56.985Z,32.3600
2022-11-19T01:27:08.046Z,32.2110
2022-11-19T01:27:19.115Z,32.1580
2022-11-19T01:27:30.184Z,32.1960
2022-11-19T01:27:41.254Z,32.2420
2022-11-19T01:27:52.304Z,32.2940
2022-11-19T01:28:03.373Z,32.3440
2022-11-19T01:28:14.442Z,32.3780
2022-11-19T01:28:25.512Z,32.3110
2022-11-19T01:28:36.590Z,32.3550
2022-11-19T01:28:47.651Z,32.3110
2022-11-19T01:28:58.714Z,32.3220
2022-11-19T01:29:09.780Z,32.2270
2022-11-19T01:29:21.025Z,32.2100
2022-11-19T01:29:32.170Z,32.2100
2022-11-19T01:29:43.224Z,32.1870
2022-11-19T01:29:54.315Z,32.1370
2022-11-19T01:30:05.374Z,32.1870
2022-11-19T01:30:16.435Z,32.2570
2022-11-19T01:30:27.565Z,32.2390
2022-11-19T01:30:38.727Z,32.2060
2022-11-19T01:30:49.831Z,32.1900
2022-11-19T01:31:00.918Z,32.2390
2022-11-19T01:31:12.015Z,32.2450
2022-11-19T01:31:23.085Z,32.2390
2022-11-19T01:31:34.159Z,32.1900
2022-11-19T01:31:45.234Z,32.1840
2022-11-19T01:31:56.312Z,32.2060
2022-11-19T01:32:07.394Z,32.2120
2022-11-19T01:32:18.449Z,32.1950
2022-11-19T01:32:29.510Z,32.2390
2022-11-19T01:32:40.564Z,32.2740
2022-11-19T01:32:51.631Z,32.2390
2022-11-19T01:33:02.685Z,32.2340
2022-11-19T01:33:13.754Z,32.2010
2022-11-19T01:33:24.804Z,32.1030
2022-11-19T01:33:35.844Z,32.0650
2022-11-19T01:33:46.926Z,32.0480
2022-11-19T01:33:57.993Z,32.0590
2022-11-19T01:34:09.054Z,32.0700
2022-11-19T01:34:20.124Z,32.0760
2022-11-19T01:34:31.185Z,32.1210
2022-11-19T01:34:42.244Z,32.1650
2022-11-19T01:34:53.350Z,32.2100
2022-11-19T01:35:04.464Z,32.2650
2022-11-19T01:35:15.706Z,32.2180
2022-11-19T01:35:26.801Z,32.1690
2022-11-19T01:35:37.921Z,32.1470
2022-11-19T01:35:48.995Z,32.1800
2022-11-19T01:36:00.045Z,32.2100
2022-11-19T01:36:11.093Z,32.1990
2022-11-19T01:36:22.158Z,32.1650
2022-11-19T01:36:33.206Z,32.1650
2022-11-19T01:36:44.286Z,32.1590
2022-11-19T01:36:55.334Z,32.1370
2022-11-19T01:37:06.397Z,32.1370
2022-11-19T01:37:17.474Z,32.1260
2022-11-19T01:37:28.541Z,32.0980
2022-11-19T01:37:39.594Z,32.0590
2022-11-19T01:37:50.655Z,32.0590
2022-11-19T01:38:01.734Z,32.0420
2022-11-19T01:38:12.790Z,32.0310
2022-11-19T01:38:23.875Z,32.0190
2022-11-19T01:38:34.971Z,31.9950
2022-11-19T01:38:46.071Z,32.0170
2022-11-19T01:38:57.239Z,31.9770
2022-11-19T01:39:08.348Z,31.9440
2022-11-19T01:39:19.830Z,31.9820
2022-11-19T01:39:31.235Z,32.0330
2022-11-19T01:39:42.370Z,32.0480
2022-11-19T01:39:53.404Z,32.0590
2022-11-19T01:40:04.475Z,32.0980
2022-11-19T01:40:15.552Z,32.0980
2022-11-19T01:40:26.631Z,32.0650
2022-11-19T01:40:37.694Z,32.0370
2022-11-19T01:40:48.764Z,32.0370
2022-11-19T01:40:59.814Z,32.0530
2022-11-19T01:41:10.875Z,32.0170
2022-11-19T01:41:21.912Z,31.9710
2022-11-19T01:41:32.983Z,31.9820
2022-11-19T01:41:44.034Z,32.0390
2022-11-19T01:41:55.095Z,32.0440
2022-11-19T01:42:06.154Z,32.0500
2022-11-19T01:42:17.216Z,31.9820
2022-11-19T01:42:28.306Z,31.9550
2022-11-19T01:42:39.365Z,31.9710
2022-11-19T01:42:50.444Z,32.0500
2022-11-19T01:43:01.494Z,32.0890
2022-11-19T01:43:12.575Z,32.0720
2022-11-19T01:43:23.654Z,32.0890
2022-11-19T01:43:34.711Z,32.1120
2022-11-19T01:43:45.763Z,32.1060
2022-11-19T01:43:56.831Z,32.1000
2022-11-19T01:44:07.886Z,32.1120
2022-11-19T01:44:18.955Z,32.1500
2022-11-19T01:44:30.015Z,32.1220
2022-11-19T01:44:41.104Z,32.0950
2022-11-19T01:44:52.181Z,32.0610
2022-11-19T01:45:03.254Z,32.0440
2022-11-19T01:45:14.324Z,32.0890
2022-11-19T01:45:25.405Z,32.0610
2022-11-19T01:45:36.477Z,32.0610
2022-11-19T01:45:47.506Z,32.0550
2022-11-19T01:45:58.566Z,32.0720
2022-11-19T01:46:09.632Z,32.0440
2022-11-19T01:46:20.676Z,32.0390
2022-11-19T01:46:31.735Z,32.0330
2022-11-19T01:46:42.794Z,32.1500
2022-11-19T01:46:53.864Z,32.2570
2022-11-19T01:47:04.928Z,32.1790
2022-11-19T01:47:15.996Z,32.1220
2022-11-19T01:47:27.065Z,32.0810
2022-11-19T01:47:38.162Z,32.0650
2022-11-19T01:47:49.242Z,32.0370
2022-11-19T01:48:00.406Z,31.9640
2022-11-19T01:48:11.546Z,31.8920
2022-11-19T01:48:22.620Z,31.8530
2022-11-19T01:48:33.673Z,31.8130
2022-11-19T01:48:44.726Z,31.8270
2022-11-19T01:48:55.814Z,31.8380
2022-11-19T01:49:06.872Z,31.9440
2022-11-19T01:49:18.359Z,32.0110
2022-11-19T01:49:29.695Z,31.9600
2022-11-19T01:49:40.745Z,31.9110
2022-11-19T01:49:51.803Z,31.9160
2022-11-19T01:50:02.862Z,31.9710
2022-11-19T01:50:13.925Z,31.9490
2022-11-19T01:50:25.005Z,31.8990
2022-11-19T01:50:36.054Z,31.8660
2022-11-19T01:50:47.114Z,31.9220
2022-11-19T01:50:58.224Z,31.9160
2022-11-19T01:51:09.266Z,31.9220
2022-11-19T01:51:20.332Z,32.0170
2022-11-19T01:51:31.385Z,31.9800
2022-11-19T01:51:42.438Z,31.9350
2022-11-19T01:51:53.486Z,31.9130
2022-11-19T01:52:04.566Z,31.9130
2022-11-19T01:52:15.684Z,31.9460
2022-11-19T01:52:26.835Z,31.9330
2022-11-19T01:52:38.014Z,31.9380
2022-11-19T01:52:49.255Z,31.9710
2022-11-19T01:53:00.415Z,32.0280
2022-11-19T01:53:11.485Z,32.0060
2022-11-19T01:53:22.524Z,31.9600
2022-11-19T01:53:33.584Z,31.9950
2022-11-19T01:53:44.651Z,32.0060
2022-11-19T01:53:55.705Z,31.9710
2022-11-19T01:54:06.771Z,31.9810
2022-11-19T01:54:17.833Z,31.9920
2022-11-19T01:54:28.896Z,32.0140
2022-11-19T01:54:39.974Z,31.9700
2022-11-19T01:54:51.052Z,31.9530
2022-11-19T01:55:02.122Z,31.9810
2022-11-19T01:55:13.185Z,32.0080
2022-11-19T01:55:24.302Z,32.0080
2022-11-19T01:55:35.456Z,32.0190
2022-11-19T01:55:46.624Z,32.0260
2022-11-19T01:55:57.724Z,31.9920
2022-11-19T01:56:08.843Z,31.9640
2022-11-19T01:56:19.909Z,31.9370
2022-11-19T01:56:30.975Z,31.9190
2022-11-19T01:56:42.150Z,31.9190
2022-11-19T01:56:53.291Z,31.9860
2022-11-19T01:57:04.364Z,31.9770
2022-11-19T01:57:15.460Z,31.9490
2022-11-19T01:57:26.525Z,31.9660
2022-11-19T01:57:37.575Z,31.9770
2022-11-19T01:57:48.645Z,31.9640
2022-11-19T01:57:59.826Z,31.9420
2022-11-19T01:58:10.889Z,31.9810
2022-11-19T01:58:21.960Z,31.9880
2022-11-19T01:58:33.006Z,31.9770
2022-11-19T01:58:44.044Z,32.0060
2022-11-19T01:58:55.112Z,32.0330
2022-11-19T01:59:06.184Z,32.0280
2022-11-19T01:59:17.634Z,32.0280
2022-11-19T01:59:28.985Z,31.9950
2022-11-19T01:59:40.055Z,31.9370
2022-11-19T01:59:51.132Z,31.9140
2022-11-19T02:00:02.166Z,31.9300
2022-11-19T02:00:13.264Z,31.9480
2022-11-19T02:00:24.361Z,32.0140
2022-11-19T02:00:35.646Z,32.0140
2022-11-19T02:00:46.735Z,32.0530
2022-11-19T02:00:57.901Z,32.0480
2022-11-19T02:01:08.999Z,32.0700
2022-11-19T02:01:20.207Z,32.1180
2022-11-19T02:01:31.347Z,32.1430
2022-11-19T02:01:42.467Z,32.1100
2022-11-19T02:01:53.575Z,32.0260
2022-11-19T02:02:04.651Z,32.0080
2022-11-19T02:02:15.714Z,32.0480
2022-11-19T02:02:26.778Z,32.0920
2022-11-19T02:02:37.845Z,32.1210
2022-11-19T02:02:48.913Z,32.1100
2022-11-19T02:02:59.997Z,32.0860
2022-11-19T02:03:11.085Z,32.0400
2022-11-19T02:03:22.214Z,32.0290
2022-11-19T02:03:33.371Z,32.0420
2022-11-19T02:03:44.466Z,32.1480
2022-11-19T02:03:55.556Z,32.2210
2022-11-19T02:04:06.657Z,32.1430
2022-11-19T02:04:17.783Z,32.0700
2022-11-19T02:04:28.864Z,32.0590
2022-11-19T02:04:39.949Z,32.0450
2022-11-19T02:04:50.995Z,32.0920
2022-11-19T02:05:02.046Z,32.0860
2022-11-19T02:05:13.115Z,32.0370
2022-11-19T02:05:24.191Z,31.9860
2022-11-19T02:05:35.257Z,31.9420
2022-11-19T02:05:46.345Z,31.9370
2022-11-19T02:05:57.375Z,31.9480
2022-11-19T02:06:08.457Z,31.8970
2022-11-19T02:06:19.496Z,31.8970
2022-11-19T02:06:30.555Z,31.8970
2022-11-19T02:06:41.605Z,31.8970
2022-11-19T02:06:52.665Z,31.9370
2022-11-19T02:07:03.768Z,31.9590
2022-11-19T02:07:14.859Z,31.9590
2022-11-19T02:07:25.982Z,31.9480
2022-11-19T02:07:37.065Z,31.9700
2022-11-19T02:07:48.095Z,31.9480
2022-11-19T02:07:59.136Z,31.9640
2022-11-19T02:08:10.324Z,31.9860
2022-11-19T02:08:21.394Z,31.9750
2022-11-19T02:08:32.465Z,31.9480
2022-11-19T02:08:43.562Z,31.9530
2022-11-19T02:08:54.626Z,31.9590
2022-11-19T02:09:05.697Z,31.9700
2022-11-19T02:09:17.105Z,32.0030
2022-11-19T02:09:28.305Z,32.0260
2022-11-19T02:09:39.376Z,32.0140
2022-11-19T02:09:50.445Z,31.9810
2022-11-19T02:10:01.522Z,31.9140
2022-11-19T02:10:12.585Z,31.8460
2022-11-19T02:10:23.655Z,31.8970
2022-11-19T02:10:34.774Z,31.8530
2022-11-19T02:10:45.845Z,31.8920
2022-11-19T02:10:56.882Z,31.8640
2022-11-19T02:11:07.935Z,31.8810
2022-11-19T02:11:19.015Z,31.9190
2022-11-19T02:11:30.097Z,31.9250
2022-11-19T02:11:41.166Z,31.9080
2022-11-19T02:11:52.214Z,31.8460
2022-11-19T02:12:03.265Z,31.8410
2022-11-19T02:12:14.334Z,31.8700
2022-11-19T02:12:25.406Z,31.9190
2022-11-19T02:12:36.451Z,31.9860
2022-11-19T02:12:47.485Z,31.9640
2022-11-19T02:12:58.534Z,31.9420
2022-11-19T02:13:09.615Z,31.9750
2022-11-19T02:13:20.684Z,32.0080
2022-11-19T02:13:31.745Z,32.0370
2022-11-19T02:13:42.785Z,32.0530
2022-11-19T02:13:53.846Z,32.0080
2022-11-19T02:14:04.916Z,31.9590
2022-11-19T02:14:15.980Z,31.9080
2022-11-19T02:14:27.035Z,31.8920
2022-11-19T02:14:38.115Z,31.8460
2022-11-19T02:14:52.022Z,31.8410